sensor_id;sensor_type;location;lat;lon;timestamp;P1;durP1;ratioP1;P2;durP2;ratioP2
8562;SDS011;16392;52.508;13.468;2023-07-28T08:00:21;509.70;;;144.38;;
8562;SDS011;16392;52.508;13.468;2023-07-28T08:02:48;447.47;;;126.83;;
8562;SDS011;16392;52.508;13.468;2023-07-28T08:05:15;450.27;;;129.20;;
8562;SDS011;16392;52.508;13.468;2023-07-28T08:07:42;445.87;;;129.83;;
8562;SDS011;16392;52.508;13.468;2023-07-28T08:10:09;450.52;;;130.52;;
8562;SDS011;16392;52.508;13.468;2023-07-28T08:12:36;456.17;;;133.27;;
8562;SDS011;16392;52.508;13.468;2023-07-28T08:15:02;459.05;;;137.13;;
8562;SDS011;16392;52.508;13.468;2023-07-28T08:17:31;461.30;;;143.70;;
8562;SDS011;16392;52.508;13.468;2023-07-28T08:19:57;466.48;;;152.02;;
8562;SDS011;16392;52.508;13.468;2023-07-28T08:22:24;476.77;;;176.90;;
8562;SDS011;16392;52.508;13.468;2023-07-28T08:24:51;478.25;;;174.70;;
8562;SDS011;16392;52.508;13.468;2023-07-28T08:27:17;480.67;;;177.43;;
8562;SDS011;16392;52.508;13.468;2023-07-28T08:29:44;474.33;;;176.95;;
8562;SDS011;16392;52.508;13.468;2023-07-28T08:32:11;473.00;;;179.05;;
8562;SDS011;16392;52.508;13.468;2023-07-28T08:34:39;468.58;;;168.48;;
8562;SDS011;16392;52.508;13.468;2023-07-28T08:37:05;472.73;;;178.55;;
8562;SDS011;16392;52.508;13.468;2023-07-28T08:39:33;464.20;;;154.18;;
8562;SDS011;16392;52.508;13.468;2023-07-28T08:42:00;469.60;;;161.43;;
8562;SDS011;16392;52.508;13.468;2023-07-28T08:44:28;467.02;;;147.90;;
8562;SDS011;16392;52.508;13.468;2023-07-28T08:46:57;465.17;;;136.60;;
8562;SDS011;16392;52.508;13.468;2023-07-28T08:49:23;467.77;;;144.52;;
8562;SDS011;16392;52.508;13.468;2023-07-28T08:51:56;465.90;;;131.52;;
8562;SDS011;16392;52.508;13.468;2023-07-28T08:54:26;463.27;;;137.25;;
8562;SDS011;16392;52.508;13.468;2023-07-28T08:56:53;467.98;;;135.30;;
8562;SDS011;16392;52.508;13.468;2023-07-28T08:59:22;475.40;;;163.20;;
8562;SDS011;16392;52.508;13.468;2023-07-28T09:01:51;470.25;;;139.75;;
8562;SDS011;16392;52.508;13.468;2023-07-28T09:04:19;473.70;;;143.40;;
8562;SDS011;16392;52.508;13.468;2023-07-28T09:06:46;472.73;;;148.57;;
8562;SDS011;16392;52.508;13.468;2023-07-28T09:09:14;471.15;;;145.27;;
8562;SDS011;16392;52.508;13.468;2023-07-28T09:11:45;474.17;;;154.55;;
8562;SDS011;16392;52.508;13.468;2023-07-28T09:14:13;475.38;;;145.15;;
8562;SDS011;16392;52.508;13.468;2023-07-28T09:16:41;469.75;;;148.25;;
8562;SDS011;16392;52.508;13.468;2023-07-28T09:19:08;470.10;;;149.57;;
8562;SDS011;16392;52.508;13.468;2023-07-28T09:21:35;474.42;;;149.45;;
8562;SDS011;16392;52.508;13.468;2023-07-28T09:24:03;471.33;;;149.07;;
8562;SDS011;16392;52.508;13.468;2023-07-28T09:26:39;469.98;;;145.85;;
8562;SDS011;16392;52.508;13.468;2023-07-28T09:29:12;478.50;;;172.07;;
8562;SDS011;16392;52.508;13.468;2023-07-28T09:31:40;469.65;;;143.10;;
8562;SDS011;16392;52.508;13.468;2023-07-28T09:34:07;464.90;;;139.15;;
8562;SDS011;16392;52.508;13.468;2023-07-28T09:36:34;462.65;;;134.35;;
8562;SDS011;16392;52.508;13.468;2023-07-28T09:39:03;469.23;;;137.83;;
8562;SDS011;16392;52.508;13.468;2023-07-28T09:41:32;470.65;;;142.80;;
8562;SDS011;16392;52.508;13.468;2023-07-28T09:44:02;464.65;;;134.45;;
8562;SDS011;16392;52.508;13.468;2023-07-28T09:46:29;467.83;;;139.10;;
8562;SDS011;16392;52.508;13.468;2023-07-28T09:48:56;469.20;;;143.75;;
8562;SDS011;16392;52.508;13.468;2023-07-28T09:51:26;473.70;;;152.38;;
8562;SDS011;16392;52.508;13.468;2023-07-28T09:53:55;470.05;;;147.27;;
8562;SDS011;16392;52.508;13.468;2023-07-28T09:56:27;471.73;;;145.85;;
8562;SDS011;16392;52.508;13.468;2023-07-28T09:58:54;469.95;;;150.35;;
8562;SDS011;16392;52.508;13.468;2023-07-28T10:01:24;470.83;;;146.45;;
8562;SDS011;16392;52.508;13.468;2023-07-28T10:03:52;478.52;;;156.50;;
8562;SDS011;16392;52.508;13.468;2023-07-28T10:06:19;476.50;;;166.43;;
8562;SDS011;16392;52.508;13.468;2023-07-28T10:08:48;477.95;;;168.13;;
8562;SDS011;16392;52.508;13.468;2023-07-28T10:11:15;472.00;;;165.27;;
8562;SDS011;16392;52.508;13.468;2023-07-28T10:13:43;469.73;;;152.02;;
8562;SDS011;16392;52.508;13.468;2023-07-28T10:16:12;472.50;;;154.75;;
8562;SDS011;16392;52.508;13.468;2023-07-28T10:18:41;475.20;;;156.13;;
8562;SDS011;16392;52.508;13.468;2023-07-28T10:21:08;467.75;;;144.57;;
8562;SDS011;16392;52.508;13.468;2023-07-28T10:23:38;472.10;;;146.75;;
8562;SDS011;16392;52.508;13.468;2023-07-28T10:26:05;471.58;;;147.90;;
8562;SDS011;16392;52.508;13.468;2023-07-28T10:28:33;467.38;;;141.20;;
8562;SDS011;16392;52.508;13.468;2023-07-28T10:31:04;471.20;;;139.00;;
8562;SDS011;16392;52.508;13.468;2023-07-28T10:33:32;468.67;;;138.55;;
8562;SDS011;16392;52.508;13.468;2023-07-28T10:36:10;466.48;;;138.27;;
8562;SDS011;16392;52.508;13.468;2023-07-28T10:38:38;468.55;;;138.55;;
8562;SDS011;16392;52.508;13.468;2023-07-28T10:41:09;469.30;;;138.65;;
8562;SDS011;16392;52.508;13.468;2023-07-28T10:43:37;468.83;;;140.02;;
8562;SDS011;16392;52.508;13.468;2023-07-28T10:46:04;467.90;;;134.03;;
8562;SDS011;16392;52.508;13.468;2023-07-28T10:48:33;462.43;;;130.57;;
8562;SDS011;16392;52.508;13.468;2023-07-28T10:51:01;472.03;;;131.53;;
8562;SDS011;16392;52.508;13.468;2023-07-28T10:53:29;457.58;;;126.78;;
8562;SDS011;16392;52.508;13.468;2023-07-28T10:55:58;461.30;;;129.30;;
8562;SDS011;16392;52.508;13.468;2023-07-28T10:58:25;467.77;;;133.13;;
8562;SDS011;16392;52.508;13.468;2023-07-28T11:00:51;466.58;;;139.65;;
8562;SDS011;16392;52.508;13.468;2023-07-28T11:03:18;465.33;;;134.67;;
8562;SDS011;16392;52.508;13.468;2023-07-28T11:05:45;462.33;;;135.70;;
8562;SDS011;16392;52.508;13.468;2023-07-28T11:08:14;459.40;;;126.75;;
8562;SDS011;16392;52.508;13.468;2023-07-28T11:10:42;456.30;;;125.38;;
8562;SDS011;16392;52.508;13.468;2023-07-28T11:13:08;449.87;;;113.13;;
8562;SDS011;16392;52.508;13.468;2023-07-28T11:15:35;448.23;;;115.87;;
8562;SDS011;16392;52.508;13.468;2023-07-28T11:18:02;443.60;;;111.63;;
8562;SDS011;16392;52.508;13.468;2023-07-28T11:20:30;443.53;;;110.40;;
8562;SDS011;16392;52.508;13.468;2023-07-28T11:22:57;443.47;;;110.73;;
8562;SDS011;16392;52.508;13.468;2023-07-28T11:25:26;443.10;;;108.13;;
8562;SDS011;16392;52.508;13.468;2023-07-28T11:27:56;439.87;;;110.93;;
8562;SDS011;16392;52.508;13.468;2023-07-28T11:30:23;437.07;;;108.60;;
8562;SDS011;16392;52.508;13.468;2023-07-28T11:32:51;436.50;;;107.30;;
8562;SDS011;16392;52.508;13.468;2023-07-28T11:35:19;434.90;;;107.17;;
8562;SDS011;16392;52.508;13.468;2023-07-28T11:37:48;430.57;;;104.67;;
8562;SDS011;16392;52.508;13.468;2023-07-28T11:40:17;432.20;;;109.53;;
8562;SDS011;16392;52.508;13.468;2023-07-28T11:42:46;430.03;;;108.27;;
8562;SDS011;16392;52.508;13.468;2023-07-28T11:45:16;431.67;;;109.43;;
8562;SDS011;16392;52.508;13.468;2023-07-28T11:47:57;431.30;;;107.70;;
8562;SDS011;16392;52.508;13.468;2023-07-28T11:50:25;430.67;;;112.37;;
8562;SDS011;16392;52.508;13.468;2023-07-28T11:52:54;435.60;;;113.53;;
8562;SDS011;16392;52.508;13.468;2023-07-28T11:55:22;436.50;;;112.40;;
8562;SDS011;16392;52.508;13.468;2023-07-28T11:57:49;437.30;;;110.83;;
8562;SDS011;16392;52.508;13.468;2023-07-28T12:00:19;439.23;;;116.07;;
8562;SDS011;16392;52.508;13.468;2023-07-28T12:03:00;438.27;;;110.50;;
8562;SDS011;16392;52.508;13.468;2023-07-28T12:05:30;441.93;;;110.17;;
8562;SDS011;16392;52.508;13.468;2023-07-28T12:07:58;444.50;;;115.93;;
8562;SDS011;16392;52.508;13.468;2023-07-28T12:10:24;442.83;;;116.80;;
8562;SDS011;16392;52.508;13.468;2023-07-28T12:12:51;451.93;;;117.73;;
8562;SDS011;16392;52.508;13.468;2023-07-28T12:15:20;452.53;;;119.30;;
8562;SDS011;16392;52.508;13.468;2023-07-28T12:20:39;454.25;;;122.53;;
8562;SDS011;16392;52.508;13.468;2023-07-28T12:23:11;458.30;;;119.60;;
8562;SDS011;16392;52.508;13.468;2023-07-28T12:25:39;459.70;;;125.13;;
8562;SDS011;16392;52.508;13.468;2023-07-28T12:28:05;467.75;;;133.48;;
8562;SDS011;16392;52.508;13.468;2023-07-28T12:30:34;469.33;;;134.65;;
8562;SDS011;16392;52.508;13.468;2023-07-28T12:33:01;466.05;;;126.30;;
8562;SDS011;16392;52.508;13.468;2023-07-28T12:35:28;464.17;;;129.73;;
8562;SDS011;16392;52.508;13.468;2023-07-28T12:37:57;462.38;;;127.28;;
8562;SDS011;16392;52.508;13.468;2023-07-28T12:40:26;462.95;;;128.32;;
8562;SDS011;16392;52.508;13.468;2023-07-28T12:42:53;461.90;;;127.43;;
8562;SDS011;16392;52.508;13.468;2023-07-28T12:45:20;460.23;;;125.40;;
8562;SDS011;16392;52.508;13.468;2023-07-28T12:47:48;458.27;;;126.47;;
8562;SDS011;16392;52.508;13.468;2023-07-28T12:50:15;457.90;;;122.10;;
8562;SDS011;16392;52.508;13.468;2023-07-28T12:52:42;460.63;;;125.80;;
8562;SDS011;16392;52.508;13.468;2023-07-28T12:55:08;459.48;;;125.80;;
8562;SDS011;16392;52.508;13.468;2023-07-28T12:57:35;464.63;;;131.43;;
8562;SDS011;16392;52.508;13.468;2023-07-28T13:00:02;463.03;;;129.23;;
8562;SDS011;16392;52.508;13.468;2023-07-28T13:02:37;466.15;;;131.48;;
8562;SDS011;16392;52.508;13.468;2023-07-28T13:05:06;472.37;;;144.47;;
8562;SDS011;16392;52.508;13.468;2023-07-28T13:07:35;465.50;;;129.43;;
8562;SDS011;16392;52.508;13.468;2023-07-28T13:10:02;466.15;;;132.35;;
8562;SDS011;16392;52.508;13.468;2023-07-28T13:12:29;465.30;;;132.35;;
8562;SDS011;16392;52.508;13.468;2023-07-28T13:14:56;470.13;;;136.15;;
8562;SDS011;16392;52.508;13.468;2023-07-28T13:17:23;472.88;;;143.15;;
8562;SDS011;16392;52.508;13.468;2023-07-28T13:19:49;473.10;;;147.25;;
8562;SDS011;16392;52.508;13.468;2023-07-28T13:22:17;474.73;;;145.65;;
8562;SDS011;16392;52.508;13.468;2023-07-28T13:24:44;474.05;;;150.63;;
8562;SDS011;16392;52.508;13.468;2023-07-28T13:27:11;471.42;;;148.55;;
8562;SDS011;16392;52.508;13.468;2023-07-28T13:29:37;474.13;;;147.95;;
8562;SDS011;16392;52.508;13.468;2023-07-28T13:32:09;479.15;;;160.75;;
8562;SDS011;16392;52.508;13.468;2023-07-28T13:34:41;476.88;;;159.55;;
8562;SDS011;16392;52.508;13.468;2023-07-28T13:37:08;475.10;;;160.73;;
8562;SDS011;16392;52.508;13.468;2023-07-28T13:39:36;471.90;;;157.43;;
8562;SDS011;16392;52.508;13.468;2023-07-28T13:42:03;476.48;;;166.07;;
8562;SDS011;16392;52.508;13.468;2023-07-28T13:44:30;472.83;;;165.10;;
8562;SDS011;16392;52.508;13.468;2023-07-28T13:46:56;470.83;;;156.45;;
8562;SDS011;16392;52.508;13.468;2023-07-28T13:49:23;476.05;;;167.18;;
8562;SDS011;16392;52.508;13.468;2023-07-28T13:51:50;472.80;;;160.82;;
8562;SDS011;16392;52.508;13.468;2023-07-28T13:54:16;472.80;;;162.73;;
8562;SDS011;16392;52.508;13.468;2023-07-28T13:56:44;477.40;;;162.18;;
8562;SDS011;16392;52.508;13.468;2023-07-28T13:59:11;477.65;;;166.68;;
8562;SDS011;16392;52.508;13.468;2023-07-28T14:01:37;477.48;;;166.57;;
8562;SDS011;16392;52.508;13.468;2023-07-28T14:04:04;481.65;;;173.95;;
8562;SDS011;16392;52.508;13.468;2023-07-28T14:06:31;482.52;;;167.85;;
8562;SDS011;16392;52.508;13.468;2023-07-28T14:08:58;481.13;;;180.00;;
8562;SDS011;16392;52.508;13.468;2023-07-28T14:11:24;484.15;;;176.43;;
8562;SDS011;16392;52.508;13.468;2023-07-28T14:13:52;482.58;;;182.10;;
8562;SDS011;16392;52.508;13.468;2023-07-28T14:16:19;484.42;;;183.18;;
8562;SDS011;16392;52.508;13.468;2023-07-28T14:18:47;484.67;;;192.75;;
8562;SDS011;16392;52.508;13.468;2023-07-28T14:21:15;480.33;;;181.95;;
8562;SDS011;16392;52.508;13.468;2023-07-28T14:23:42;480.23;;;185.10;;
8562;SDS011;16392;52.508;13.468;2023-07-28T14:26:09;486.05;;;194.63;;
8562;SDS011;16392;52.508;13.468;2023-07-28T14:28:35;485.35;;;193.75;;
8562;SDS011;16392;52.508;13.468;2023-07-28T14:31:03;486.65;;;198.13;;
8562;SDS011;16392;52.508;13.468;2023-07-28T14:33:30;492.10;;;199.10;;
8562;SDS011;16392;52.508;13.468;2023-07-28T14:35:56;495.40;;;215.02;;
8562;SDS011;16392;52.508;13.468;2023-07-28T14:38:23;497.85;;;220.15;;
8562;SDS011;16392;52.508;13.468;2023-07-28T14:40:49;498.23;;;241.05;;
8562;SDS011;16392;52.508;13.468;2023-07-28T14:43:17;501.33;;;248.68;;
8562;SDS011;16392;52.508;13.468;2023-07-28T14:45:44;493.70;;;230.27;;
8562;SDS011;16392;52.508;13.468;2023-07-28T14:48:12;494.25;;;234.45;;
8562;SDS011;16392;52.508;13.468;2023-07-28T14:50:39;491.40;;;233.70;;
8562;SDS011;16392;52.508;13.468;2023-07-28T14:55:54;488.95;;;218.00;;
8562;SDS011;16392;52.508;13.468;2023-07-28T14:58:21;491.20;;;219.57;;
8562;SDS011;16392;52.508;13.468;2023-07-28T15:00:47;495.27;;;222.52;;
8562;SDS011;16392;52.508;13.468;2023-07-28T15:03:15;497.65;;;229.52;;
8562;SDS011;16392;52.508;13.468;2023-07-28T15:05:42;489.52;;;218.75;;
8562;SDS011;16392;52.508;13.468;2023-07-28T15:08:09;496.30;;;235.85;;
8562;SDS011;16392;52.508;13.468;2023-07-28T15:10:36;489.38;;;209.85;;
8562;SDS011;16392;52.508;13.468;2023-07-28T15:13:03;493.75;;;222.50;;
8562;SDS011;16392;52.508;13.468;2023-07-28T15:15:29;488.65;;;210.77;;
8562;SDS011;16392;52.508;13.468;2023-07-28T15:17:56;490.98;;;210.50;;
8562;SDS011;16392;52.508;13.468;2023-07-28T15:20:24;496.35;;;222.40;;
8562;SDS011;16392;52.508;13.468;2023-07-28T15:22:50;487.48;;;203.70;;
8562;SDS011;16392;52.508;13.468;2023-07-28T15:25:17;487.55;;;193.60;;
8562;SDS011;16392;52.508;13.468;2023-07-28T15:27:44;489.40;;;191.55;;
8562;SDS011;16392;52.508;13.468;2023-07-28T15:30:10;490.25;;;199.27;;
8562;SDS011;16392;52.508;13.468;2023-07-28T15:32:39;484.98;;;188.50;;
8562;SDS011;16392;52.508;13.468;2023-07-28T15:35:06;488.38;;;194.13;;
8562;SDS011;16392;52.508;13.468;2023-07-28T15:37:34;483.80;;;182.18;;
8562;SDS011;16392;52.508;13.468;2023-07-28T15:40:01;490.05;;;186.43;;
8562;SDS011;16392;52.508;13.468;2023-07-28T15:42:28;486.58;;;187.65;;
8562;SDS011;16392;52.508;13.468;2023-07-28T15:44:55;487.75;;;181.50;;
8562;SDS011;16392;52.508;13.468;2023-07-28T15:47:24;487.20;;;178.32;;
8562;SDS011;16392;52.508;13.468;2023-07-28T15:49:51;485.30;;;178.00;;
8562;SDS011;16392;52.508;13.468;2023-07-28T15:52:19;487.65;;;177.20;;
8562;SDS011;16392;52.508;13.468;2023-07-28T15:54:47;480.98;;;166.68;;
8562;SDS011;16392;52.508;13.468;2023-07-28T15:57:13;480.67;;;162.30;;
8562;SDS011;16392;52.508;13.468;2023-07-28T15:59:40;482.10;;;159.15;;
8562;SDS011;16392;52.508;13.468;2023-07-28T16:02:08;482.52;;;163.57;;
8562;SDS011;16392;52.508;13.468;2023-07-28T16:04:34;484.20;;;160.65;;
8562;SDS011;16392;52.508;13.468;2023-07-28T16:07:02;482.15;;;160.15;;
8562;SDS011;16392;52.508;13.468;2023-07-28T16:09:29;482.67;;;161.20;;
8562;SDS011;16392;52.508;13.468;2023-07-28T16:11:57;484.30;;;162.88;;
8562;SDS011;16392;52.508;13.468;2023-07-28T16:14:24;484.48;;;161.70;;
8562;SDS011;16392;52.508;13.468;2023-07-28T16:16:50;479.70;;;152.13;;
8562;SDS011;16392;52.508;13.468;2023-07-28T16:19:17;480.35;;;153.35;;
8562;SDS011;16392;52.508;13.468;2023-07-28T16:21:43;480.88;;;155.93;;
8562;SDS011;16392;52.508;13.468;2023-07-28T16:24:10;481.65;;;159.80;;
8562;SDS011;16392;52.508;13.468;2023-07-28T16:26:37;479.60;;;164.30;;
8562;SDS011;16392;52.508;13.468;2023-07-28T16:29:05;480.38;;;155.70;;
8562;SDS011;16392;52.508;13.468;2023-07-28T16:31:32;477.95;;;152.90;;
8562;SDS011;16392;52.508;13.468;2023-07-28T16:33:59;482.27;;;163.43;;
8562;SDS011;16392;52.508;13.468;2023-07-28T16:36:25;484.00;;;157.82;;
8562;SDS011;16392;52.508;13.468;2023-07-28T16:38:52;482.63;;;148.45;;
8562;SDS011;16392;52.508;13.468;2023-07-28T16:41:19;483.65;;;162.63;;
8562;SDS011;16392;52.508;13.468;2023-07-28T16:43:45;484.00;;;158.13;;
8562;SDS011;16392;52.508;13.468;2023-07-28T16:46:13;481.75;;;155.75;;
8562;SDS011;16392;52.508;13.468;2023-07-28T16:48:40;480.83;;;153.02;;
8562;SDS011;16392;52.508;13.468;2023-07-28T16:51:06;481.80;;;156.23;;
8562;SDS011;16392;52.508;13.468;2023-07-28T16:53:33;481.08;;;153.68;;
8562;SDS011;16392;52.508;13.468;2023-07-28T16:55:59;483.40;;;161.73;;
8562;SDS011;16392;52.508;13.468;2023-07-28T16:58:26;482.33;;;165.82;;
8562;SDS011;16392;52.508;13.468;2023-07-28T17:00:53;480.58;;;155.80;;
8562;SDS011;16392;52.508;13.468;2023-07-28T17:03:20;479.30;;;158.65;;
8562;SDS011;16392;52.508;13.468;2023-07-28T17:05:47;477.65;;;152.63;;
8562;SDS011;16392;52.508;13.468;2023-07-28T17:08:14;483.08;;;156.93;;
8562;SDS011;16392;52.508;13.468;2023-07-28T17:10:41;478.30;;;151.73;;
8562;SDS011;16392;52.508;13.468;2023-07-28T17:13:08;477.33;;;145.43;;
8562;SDS011;16392;52.508;13.468;2023-07-28T17:15:35;479.08;;;148.43;;
8562;SDS011;16392;52.508;13.468;2023-07-28T17:18:02;475.02;;;139.30;;
8562;SDS011;16392;52.508;13.468;2023-07-28T17:20:30;476.77;;;140.95;;
8562;SDS011;16392;52.508;13.468;2023-07-28T17:22:57;472.02;;;138.13;;
8562;SDS011;16392;52.508;13.468;2023-07-28T17:25:23;473.75;;;138.68;;
8562;SDS011;16392;52.508;13.468;2023-07-28T17:27:50;473.80;;;138.27;;
8562;SDS011;16392;52.508;13.468;2023-07-28T17:30:16;479.50;;;139.37;;
8562;SDS011;16392;52.508;13.468;2023-07-28T17:32:43;474.77;;;131.63;;
8562;SDS011;16392;52.508;13.468;2023-07-28T17:35:10;475.63;;;131.68;;
8562;SDS011;16392;52.508;13.468;2023-07-28T17:37:39;477.33;;;141.07;;
8562;SDS011;16392;52.508;13.468;2023-07-28T17:40:06;474.65;;;133.50;;
8562;SDS011;16392;52.508;13.468;2023-07-28T17:42:34;475.70;;;139.13;;
8562;SDS011;16392;52.508;13.468;2023-07-28T17:45:00;474.10;;;134.75;;
8562;SDS011;16392;52.508;13.468;2023-07-28T17:47:31;477.27;;;138.73;;
8562;SDS011;16392;52.508;13.468;2023-07-28T17:49:59;478.83;;;139.55;;
8562;SDS011;16392;52.508;13.468;2023-07-28T17:52:25;477.05;;;143.07;;
8562;SDS011;16392;52.508;13.468;2023-07-28T17:54:53;477.67;;;135.30;;
8562;SDS011;16392;52.508;13.468;2023-07-28T17:57:20;478.58;;;142.23;;
8562;SDS011;16392;52.508;13.468;2023-07-28T17:59:47;477.92;;;141.15;;
8562;SDS011;16392;52.508;13.468;2023-07-28T18:02:13;484.85;;;150.07;;
8562;SDS011;16392;52.508;13.468;2023-07-28T18:04:40;480.80;;;142.77;;
8562;SDS011;16392;52.508;13.468;2023-07-28T18:07:07;480.38;;;146.55;;
8562;SDS011;16392;52.508;13.468;2023-07-28T18:09:33;479.10;;;144.90;;
8562;SDS011;16392;52.508;13.468;2023-07-28T18:12:01;481.60;;;147.15;;
8562;SDS011;16392;52.508;13.468;2023-07-28T18:14:28;482.73;;;145.27;;
8562;SDS011;16392;52.508;13.468;2023-07-28T18:16:55;479.70;;;143.63;;
8562;SDS011;16392;52.508;13.468;2023-07-28T18:19:21;481.55;;;137.05;;
8562;SDS011;16392;52.508;13.468;2023-07-28T18:21:48;481.77;;;144.05;;
8562;SDS011;16392;52.508;13.468;2023-07-28T18:24:14;480.80;;;141.10;;
8562;SDS011;16392;52.508;13.468;2023-07-28T18:26:45;481.30;;;139.93;;
8562;SDS011;16392;52.508;13.468;2023-07-28T18:29:12;476.45;;;137.95;;
8562;SDS011;16392;52.508;13.468;2023-07-28T18:31:39;475.80;;;135.30;;
8562;SDS011;16392;52.508;13.468;2023-07-28T18:34:06;474.90;;;133.75;;
8562;SDS011;16392;52.508;13.468;2023-07-28T18:36:32;474.90;;;135.10;;
8562;SDS011;16392;52.508;13.468;2023-07-28T18:38:59;473.53;;;134.00;;
8562;SDS011;16392;52.508;13.468;2023-07-28T18:41:27;473.73;;;130.83;;
8562;SDS011;16392;52.508;13.468;2023-07-28T18:43:53;476.80;;;133.23;;
8562;SDS011;16392;52.508;13.468;2023-07-28T18:46:21;475.57;;;133.40;;
8562;SDS011;16392;52.508;13.468;2023-07-28T18:48:47;472.17;;;131.15;;
8562;SDS011;16392;52.508;13.468;2023-07-28T18:51:14;475.70;;;130.27;;
8562;SDS011;16392;52.508;13.468;2023-07-28T18:53:42;469.80;;;127.37;;
8562;SDS011;16392;52.508;13.468;2023-07-28T18:56:09;472.87;;;125.33;;
8562;SDS011;16392;52.508;13.468;2023-07-28T18:58:36;473.90;;;126.83;;
8562;SDS011;16392;52.508;13.468;2023-07-28T19:01:06;472.60;;;126.10;;
8562;SDS011;16392;52.508;13.468;2023-07-28T19:03:35;474.87;;;129.87;;
8562;SDS011;16392;52.508;13.468;2023-07-28T19:06:01;469.57;;;119.90;;
8562;SDS011;16392;52.508;13.468;2023-07-28T19:08:28;467.33;;;121.67;;
8562;SDS011;16392;52.508;13.468;2023-07-28T19:10:55;469.47;;;120.20;;
8562;SDS011;16392;52.508;13.468;2023-07-28T19:13:21;468.90;;;123.60;;
8562;SDS011;16392;52.508;13.468;2023-07-28T19:15:48;473.10;;;120.77;;
8562;SDS011;16392;52.508;13.468;2023-07-28T19:18:15;465.50;;;115.00;;
8562;SDS011;16392;52.508;13.468;2023-07-28T19:20:43;464.00;;;116.80;;
8562;SDS011;16392;52.508;13.468;2023-07-28T19:23:10;461.03;;;111.87;;
8562;SDS011;16392;52.508;13.468;2023-07-28T19:25:37;463.60;;;116.03;;
8562;SDS011;16392;52.508;13.468;2023-07-28T19:28:04;465.10;;;116.20;;
8562;SDS011;16392;52.508;13.468;2023-07-28T19:30:31;461.77;;;115.67;;
8562;SDS011;16392;52.508;13.468;2023-07-28T19:32:58;459.03;;;112.90;;
8562;SDS011;16392;52.508;13.468;2023-07-28T19:35:24;458.63;;;113.53;;
8562;SDS011;16392;52.508;13.468;2023-07-28T19:37:52;457.17;;;114.43;;
8562;SDS011;16392;52.508;13.468;2023-07-28T19:40:19;456.60;;;112.37;;
8562;SDS011;16392;52.508;13.468;2023-07-28T19:42:46;455.77;;;113.67;;
8562;SDS011;16392;52.508;13.468;2023-07-28T19:45:13;458.27;;;112.37;;
8562;SDS011;16392;52.508;13.468;2023-07-28T19:47:40;454.63;;;112.93;;
8562;SDS011;16392;52.508;13.468;2023-07-28T19:50:07;454.47;;;112.07;;
8562;SDS011;16392;52.508;13.468;2023-07-28T19:52:33;455.30;;;108.70;;
8562;SDS011;16392;52.508;13.468;2023-07-28T19:55:01;450.40;;;110.03;;
8562;SDS011;16392;52.508;13.468;2023-07-28T19:57:28;451.13;;;110.20;;
8562;SDS011;16392;52.508;13.468;2023-07-28T19:59:55;452.27;;;109.63;;
8562;SDS011;16392;52.508;13.468;2023-07-28T20:02:22;456.10;;;112.00;;
8562;SDS011;16392;52.508;13.468;2023-07-28T20:04:48;450.03;;;110.67;;
8562;SDS011;16392;52.508;13.468;2023-07-28T20:07:15;494.05;;;122.45;;
8562;SDS011;16392;52.508;13.468;2023-07-28T20:09:42;451.03;;;113.50;;
8562;SDS011;16392;52.508;13.468;2023-07-28T20:12:10;454.07;;;111.37;;
8562;SDS011;16392;52.508;13.468;2023-07-28T20:14:37;448.97;;;108.60;;
8562;SDS011;16392;52.508;13.468;2023-07-28T20:17:03;449.03;;;109.87;;
8562;SDS011;16392;52.508;13.468;2023-07-28T20:19:30;446.03;;;107.10;;
8562;SDS011;16392;52.508;13.468;2023-07-28T20:21:57;448.27;;;110.07;;
8562;SDS011;16392;52.508;13.468;2023-07-28T20:24:24;447.00;;;106.33;;
8562;SDS011;16392;52.508;13.468;2023-07-28T20:26:51;446.30;;;105.30;;
8562;SDS011;16392;52.508;13.468;2023-07-28T20:29:18;446.43;;;107.70;;
8562;SDS011;16392;52.508;13.468;2023-07-28T20:31:45;447.63;;;107.37;;
8562;SDS011;16392;52.508;13.468;2023-07-28T20:34:12;445.83;;;107.83;;
8562;SDS011;16392;52.508;13.468;2023-07-28T20:36:39;441.83;;;106.17;;
8562;SDS011;16392;52.508;13.468;2023-07-28T20:39:06;445.63;;;105.57;;
8562;SDS011;16392;52.508;13.468;2023-07-28T20:41:32;441.70;;;112.13;;
8562;SDS011;16392;52.508;13.468;2023-07-28T20:43:59;441.23;;;108.17;;
8562;SDS011;16392;52.508;13.468;2023-07-28T20:46:27;450.77;;;119.17;;
8562;SDS011;16392;52.508;13.468;2023-07-28T20:48:54;443.43;;;110.57;;
8562;SDS011;16392;52.508;13.468;2023-07-28T20:51:20;436.87;;;103.17;;
8562;SDS011;16392;52.508;13.468;2023-07-28T20:53:47;439.97;;;107.07;;
8562;SDS011;16392;52.508;13.468;2023-07-28T20:56:14;440.67;;;106.80;;
8562;SDS011;16392;52.508;13.468;2023-07-28T20:58:40;441.90;;;111.33;;
8562;SDS011;16392;52.508;13.468;2023-07-28T21:01:08;440.80;;;107.93;;
8562;SDS011;16392;52.508;13.468;2023-07-28T21:03:36;442.07;;;109.73;;
8562;SDS011;16392;52.508;13.468;2023-07-28T21:06:03;440.77;;;107.77;;
8562;SDS011;16392;52.508;13.468;2023-07-28T21:08:29;439.53;;;106.23;;
8562;SDS011;16392;52.508;13.468;2023-07-28T21:10:56;440.20;;;106.77;;
8562;SDS011;16392;52.508;13.468;2023-07-28T21:13:23;446.53;;;109.70;;
8562;SDS011;16392;52.508;13.468;2023-07-28T21:15:50;442.77;;;110.13;;
8562;SDS011;16392;52.508;13.468;2023-07-28T21:18:17;444.93;;;107.67;;
8562;SDS011;16392;52.508;13.468;2023-07-28T21:20:46;449.00;;;107.40;;
8562;SDS011;16392;52.508;13.468;2023-07-28T21:23:14;444.77;;;109.93;;
8562;SDS011;16392;52.508;13.468;2023-07-28T21:25:40;444.60;;;107.80;;
8562;SDS011;16392;52.508;13.468;2023-07-28T21:28:07;445.80;;;106.03;;
8562;SDS011;16392;52.508;13.468;2023-07-28T21:30:34;449.77;;;109.53;;
8562;SDS011;16392;52.508;13.468;2023-07-28T21:33:01;452.93;;;113.33;;
8562;SDS011;16392;52.508;13.468;2023-07-28T21:35:28;449.20;;;110.20;;
8562;SDS011;16392;52.508;13.468;2023-07-28T21:37:56;450.03;;;109.33;;
8562;SDS011;16392;52.508;13.468;2023-07-28T21:40:23;451.23;;;110.63;;
8562;SDS011;16392;52.508;13.468;2023-07-28T21:42:49;451.57;;;110.13;;
8562;SDS011;16392;52.508;13.468;2023-07-28T21:45:17;449.30;;;107.63;;
8562;SDS011;16392;52.508;13.468;2023-07-28T21:47:44;450.90;;;111.47;;
8562;SDS011;16392;52.508;13.468;2023-07-28T21:50:11;451.27;;;113.97;;
8562;SDS011;16392;52.508;13.468;2023-07-28T21:52:39;447.97;;;110.67;;
8562;SDS011;16392;52.508;13.468;2023-07-28T21:55:08;452.60;;;110.60;;
8562;SDS011;16392;52.508;13.468;2023-07-28T21:57:36;445.43;;;108.63;;
8562;SDS011;16392;52.508;13.468;2023-07-28T22:00:03;448.93;;;107.47;;
8562;SDS011;16392;52.508;13.468;2023-07-28T22:02:36;449.80;;;114.87;;